createdAt,value
2022-08-26T00:02:10.614Z,62.88
2022-08-26T00:04:40.070Z,62.95
2022-08-26T00:07:07.460Z,63.17
2022-08-26T00:09:38.950Z,63.33
2022-08-26T00:12:07.586Z,63.68
2022-08-26T00:14:38.258Z,63.57
2022-08-26T00:17:05.208Z,63.57
2022-08-26T00:19:40.783Z,64.02
2022-08-26T00:22:12.282Z,63.73
2022-08-26T00:24:39.252Z,63.87
2022-08-26T00:27:06.500Z,63.75
2022-08-26T00:29:37.627Z,64.05
2022-08-26T00:32:09.291Z,64.01
2022-08-26T00:34:38.932Z,64.04
2022-08-26T00:37:09.081Z,63.88
2022-08-26T00:39:37.065Z,64.27
2022-08-26T00:42:07.224Z,64.45
2022-08-26T00:44:34.005Z,64.42
2022-08-26T00:47:03.467Z,64.51
2022-08-26T00:49:43.561Z,65.22
2022-08-26T00:52:17.269Z,65.10
2022-08-26T00:54:50.585Z,64.96
2022-08-26T00:57:20.336Z,65.61
2022-08-26T00:59:49.385Z,65.65
2022-08-26T01:02:20.143Z,65.47
2022-08-26T01:04:55.834Z,66.10
2022-08-26T01:07:26.274Z,65.89
2022-08-26T01:09:55.117Z,66.09
2022-08-26T01:12:24.152Z,65.91
2022-08-26T01:14:55.731Z,66.20
2022-08-26T01:17:23.493Z,66.22
2022-08-26T01:19:53.729Z,66.36
2022-08-26T01:22:26.746Z,66.41
2022-08-26T01:24:57.777Z,66.56
2022-08-26T01:27:24.938Z,66.47
2022-08-26T01:29:57.176Z,66.81
2022-08-26T01:32:27.743Z,66.75
2022-08-26T01:34:54.753Z,66.96
2022-08-26T01:37:27.179Z,67.24
2022-08-26T01:39:58.242Z,67.34
2022-08-26T01:42:28.620Z,67.54
2022-08-26T01:45:04.160Z,67.95
2022-08-26T01:47:32.337Z,67.90
2022-08-26T01:50:05.923Z,67.87
2022-08-26T01:52:33.664Z,68.16
2022-08-26T01:55:03.011Z,68.42
2022-08-26T01:57:30.573Z,68.37
2022-08-26T01:59:59.611Z,68.55
2022-08-26T02:02:31.099Z,69.37
2022-08-26T02:05:00.656Z,69.03
2022-08-26T02:07:28.283Z,68.92
2022-08-26T02:09:55.278Z,68.98
2022-08-26T02:12:26.255Z,69.11
2022-08-26T02:14:59.669Z,69.36
2022-08-26T02:17:34.874Z,69.61
2022-08-26T02:20:02.595Z,70.00
2022-08-26T02:22:30.848Z,69.98
2022-08-26T02:25:00.557Z,69.75
2022-08-26T02:27:34.057Z,69.98
2022-08-26T02:30:09.415Z,69.87
2022-08-26T02:32:41.303Z,69.78
2022-08-26T02:35:09.967Z,69.75
2022-08-26T02:37:39.548Z,70.03
2022-08-26T02:40:10.883Z,70.19
2022-08-26T02:42:37.701Z,71.01
2022-08-26T02:45:06.031Z,70.39
2022-08-26T02:47:34.285Z,70.15
2022-08-26T02:50:01.858Z,70.48
2022-08-26T02:52:28.608Z,70.84
2022-08-26T02:54:59.821Z,71.76
2022-08-26T02:57:28.838Z,71.61
2022-08-26T02:59:55.578Z,70.94
2022-08-26T03:02:25.003Z,70.89
2022-08-26T03:04:58.110Z,71.00
2022-08-26T03:07:32.081Z,70.97
2022-08-26T03:10:01.367Z,71.16
2022-08-26T03:12:35.568Z,71.14
2022-08-26T03:15:15.895Z,71.21
2022-08-26T03:17:44.738Z,71.32
2022-08-26T03:20:15.568Z,71.47
2022-08-26T03:22:44.645Z,71.55
2022-08-26T03:25:16.259Z,71.85
2022-08-26T03:27:43.330Z,71.72
2022-08-26T03:30:30.559Z,71.81
2022-08-26T03:32:57.499Z,71.76
2022-08-26T03:35:28.104Z,72.54
2022-08-26T03:37:55.366Z,72.98
2022-08-26T03:40:29.055Z,73.36
2022-08-26T03:42:59.095Z,73.73
2022-08-26T03:45:26.842Z,73.82
2022-08-26T03:47:58.351Z,73.67
2022-08-26T03:50:25.156Z,74.03
2022-08-26T03:52:54.101Z,73.27
2022-08-26T03:55:28.532Z,73.28
2022-08-26T03:57:55.409Z,73.41
2022-08-26T04:00:25.447Z,74.14
2022-08-26T04:02:54.609Z,74.45
2022-08-26T04:05:22.781Z,74.09
2022-08-26T04:07:49.924Z,74.32
2022-08-26T04:10:20.061Z,74.13
2022-08-26T04:12:47.411Z,74.51
2022-08-26T04:15:15.746Z,74.51
2022-08-26T04:17:43.181Z,74.64
2022-08-26T04:20:19.820Z,74.29
2022-08-26T04:22:49.391Z,74.26
2022-08-26T04:25:21.356Z,74.22
2022-08-26T04:27:50.696Z,74.34
2022-08-26T04:30:20.062Z,74.32
2022-08-26T04:32:50.669Z,73.96
2022-08-26T04:35:25.675Z,74.06
2022-08-26T04:37:53.329Z,73.71
2022-08-26T04:40:23.457Z,74.13
2022-08-26T04:42:52.604Z,73.68
2022-08-26T04:45:27.074Z,73.47
2022-08-26T04:47:57.775Z,73.65
2022-08-26T04:50:25.814Z,73.49
2022-08-26T04:52:56.650Z,73.23
2022-08-26T04:55:37.264Z,73.17
2022-08-26T04:58:10.318Z,72.99
2022-08-26T05:00:39.934Z,72.69
2022-08-26T05:03:10.360Z,72.58
2022-08-26T05:05:44.420Z,72.46
2022-08-26T05:08:12.455Z,72.50
2022-08-26T05:10:43.926Z,71.96
2022-08-26T05:13:16.937Z,72.09
2022-08-26T05:15:47.700Z,72.04
2022-08-26T05:18:17.438Z,71.85
2022-08-26T05:20:49.763Z,71.71
2022-08-26T05:23:17.480Z,71.70
2022-08-26T05:25:48.109Z,71.55
2022-08-26T05:28:16.941Z,70.96
2022-08-26T05:30:44.621Z,70.55
2022-08-26T05:33:14.100Z,70.33
2022-08-26T05:35:46.637Z,70.83
2022-08-26T05:38:17.585Z,70.50
2022-08-26T05:40:52.716Z,70.68
2022-08-26T05:43:20.371Z,70.25
2022-08-26T05:45:49.537Z,69.86
2022-08-26T05:48:22.760Z,70.07
2022-08-26T05:50:56.075Z,70.13
2022-08-26T05:53:26.020Z,70.01
2022-08-26T05:55:54.519Z,70.06
2022-08-26T05:58:26.716Z,69.87
2022-08-26T06:01:04.143Z,69.52
2022-08-26T06:03:38.795Z,69.12
2022-08-26T06:06:20.120Z,68.79
2022-08-26T06:08:48.621Z,68.42
2022-08-26T06:11:25.610Z,68.13
2022-08-26T06:14:02.718Z,67.85
2022-08-26T06:16:31.207Z,67.58
2022-08-26T06:19:10.236Z,67.32
2022-08-26T06:21:42.416Z,66.75
2022-08-26T06:24:34.597Z,66.67
2022-08-26T06:27:09.604Z,65.85
2022-08-26T06:29:40.466Z,65.46
2022-08-26T06:32:11.458Z,64.89
2022-08-26T06:34:38.586Z,64.25
2022-08-26T06:37:08.817Z,64.57
2022-08-26T06:39:35.960Z,64.23
2022-08-26T06:42:08.665Z,63.54
2022-08-26T06:44:41.070Z,63.92
2022-08-26T06:47:08.350Z,63.94
2022-08-26T06:49:37.688Z,62.98
2022-08-26T06:52:04.641Z,63.00
2022-08-26T06:54:31.845Z,61.96
2022-08-26T06:57:01.160Z,61.52
2022-08-26T06:59:31.280Z,61.85
2022-08-26T07:01:58.612Z,61.74
2022-08-26T07:04:28.325Z,61.35
2022-08-26T07:06:58.041Z,60.78
2022-08-26T07:09:29.238Z,59.81
2022-08-26T07:11:56.437Z,58.31
2022-08-26T07:14:26.181Z,59.13
2022-08-26T07:16:58.302Z,57.95
2022-08-26T07:19:31.601Z,57.62
2022-08-26T07:22:03.334Z,56.90
2022-08-26T07:24:33.489Z,55.83
2022-08-26T07:27:03.584Z,56.32
2022-08-26T07:29:34.929Z,56.18
2022-08-26T07:32:02.059Z,55.95
2022-08-26T07:34:29.888Z,55.45
2022-08-26T07:36:57.170Z,55.71
2022-08-26T07:39:25.750Z,53.92
2022-08-26T07:41:52.772Z,54.15
2022-08-26T07:44:23.101Z,54.25
2022-08-26T07:46:53.150Z,53.86
2022-08-26T07:49:22.385Z,53.40
2022-08-26T07:51:50.393Z,52.73
2022-08-26T07:54:17.978Z,52.61
2022-08-26T07:56:46.185Z,52.63
2022-08-26T07:59:14.055Z,51.91
2022-08-26T08:01:44.757Z,50.82
2022-08-26T08:04:14.266Z,51.22
2022-08-26T08:06:41.818Z,49.77
2022-08-26T08:09:15.619Z,50.28
2022-08-26T08:11:44.896Z,49.98
2022-08-26T08:14:13.151Z,48.70
2022-08-26T08:16:46.004Z,49.03
2022-08-26T08:19:14.599Z,48.73
2022-08-26T08:21:44.431Z,48.45
2022-08-26T08:24:11.382Z,48.01
2022-08-26T08:26:38.357Z,48.15
2022-08-26T08:29:05.562Z,48.23
2022-08-26T08:34:21.615Z,46.37
2022-08-26T08:36:53.540Z,45.30
2022-08-26T08:39:23.748Z,46.05
2022-08-26T08:41:59.686Z,45.86
2022-08-26T08:47:04.179Z,43.81
2022-08-26T08:49:32.568Z,44.25
2022-08-26T08:52:26.658Z,43.37
2022-08-26T08:54:54.017Z,42.89
2022-08-26T08:57:28.144Z,42.50
2022-08-26T09:00:14.335Z,43.11
2022-08-26T09:03:00.047Z,42.50
2022-08-26T09:05:40.243Z,42.56
2022-08-26T09:08:21.352Z,41.52
2022-08-26T09:10:58.660Z,40.17
2022-08-26T09:13:27.134Z,40.39
2022-08-26T09:16:10.321Z,40.96
2022-08-26T09:19:04.958Z,39.51
2022-08-26T09:21:32.591Z,40.43
2022-08-26T09:23:59.936Z,40.82
2022-08-26T09:26:45.736Z,39.44
2022-08-26T09:29:24.115Z,40.10
2022-08-26T09:32:16.357Z,38.30
2022-08-26T09:35:00.777Z,38.54
2022-08-26T09:37:41.720Z,39.23
2022-08-26T09:40:27.377Z,38.29
2022-08-26T09:43:22.451Z,37.26
2022-08-26T09:46:10.007Z,39.00
2022-08-26T09:48:41.045Z,38.63
2022-08-26T09:51:27.779Z,37.83
2022-08-26T09:54:08.152Z,38.16
2022-08-26T09:56:37.573Z,37.78
2022-08-26T09:59:11.130Z,37.71
2022-08-26T10:01:44.959Z,37.85
2022-08-26T10:04:21.880Z,37.06
2022-08-26T10:07:06.013Z,34.91
2022-08-26T10:09:39.949Z,36.96
2022-08-26T10:12:18.422Z,36.45
2022-08-26T10:14:50.539Z,36.49
2022-08-26T10:17:46.222Z,35.93
2022-08-26T10:20:23.127Z,35.57
2022-08-26T10:22:54.311Z,34.72
2022-08-26T10:25:26.161Z,35.00
2022-08-26T10:28:10.467Z,35.43
2022-08-26T10:30:45.541Z,35.36
2022-08-26T10:33:15.365Z,35.04
2022-08-26T10:35:57.015Z,35.00
2022-08-26T10:38:36.000Z,34.91
2022-08-26T10:41:24.108Z,33.98
2022-08-26T10:43:59.433Z,34.20
2022-08-26T10:46:37.292Z,34.72
2022-08-26T10:49:14.003Z,33.02
2022-08-26T10:51:54.806Z,34.15
2022-08-26T10:54:46.273Z,32.48
2022-08-26T10:57:24.671Z,33.33
2022-08-26T10:59:59.245Z,32.94
2022-08-26T11:02:47.111Z,31.87
2022-08-26T11:05:21.795Z,31.73
2022-08-26T11:07:54.854Z,31.01
2022-08-26T11:10:21.975Z,30.91
2022-08-26T11:13:04.636Z,30.92
2022-08-26T11:15:31.616Z,30.42
2022-08-26T11:18:13.395Z,30.12
2022-08-26T11:20:47.432Z,29.77
2022-08-26T11:23:23.796Z,30.19
2022-08-26T11:25:56.200Z,30.66
2022-08-26T11:28:36.405Z,30.31
2022-08-26T11:31:04.693Z,29.01
2022-08-26T11:33:46.170Z,27.45
2022-08-26T11:36:28.765Z,27.88
2022-08-26T11:38:57.877Z,28.14
2022-08-26T11:41:29.952Z,28.42
2022-08-26T11:43:57.680Z,27.56
2022-08-26T11:46:28.361Z,28.27
2022-08-26T11:49:06.810Z,26.92
2022-08-26T11:51:40.100Z,27.82
2022-08-26T11:54:26.953Z,26.83
2022-08-26T11:57:07.796Z,25.87
2022-08-26T11:59:39.954Z,25.81
2022-08-26T12:02:11.594Z,25.45
2022-08-26T12:04:39.923Z,26.58
2022-08-26T12:07:08.865Z,25.58
2022-08-26T12:09:50.469Z,24.97
2022-08-26T12:12:23.063Z,24.98
2022-08-26T12:14:51.664Z,24.43
2022-08-26T12:17:27.959Z,24.03
2022-08-26T12:19:54.835Z,24.39
2022-08-26T12:22:28.802Z,22.50
2022-08-26T12:25:00.114Z,24.46
2022-08-26T12:27:35.558Z,23.95
2022-08-26T12:30:02.706Z,22.89
2022-08-26T12:32:31.956Z,22.98
2022-08-26T12:37:35.345Z,22.88
2022-08-26T12:40:25.888Z,22.72
2022-08-26T12:42:53.356Z,22.02
2022-08-26T12:45:54.996Z,21.72
2022-08-26T12:48:29.885Z,20.59
2022-08-26T12:51:00.418Z,21.83
2022-08-26T12:53:32.808Z,20.45
2022-08-26T12:56:03.523Z,20.45
2022-08-26T12:58:38.496Z,20.32
2022-08-26T13:01:06.128Z,20.56
2022-08-26T13:03:39.451Z,19.27
2022-08-26T13:06:31.139Z,19.23
2022-08-26T13:09:10.005Z,17.53
2022-08-26T13:11:39.725Z,18.20
2022-08-26T13:14:07.696Z,18.36
2022-08-26T13:16:52.208Z,17.92
2022-08-26T13:19:23.842Z,17.89
2022-08-26T13:21:55.761Z,17.60
2022-08-26T13:24:34.685Z,18.00
2022-08-26T13:34:52.771Z,17.51
2022-08-26T13:41:57.829Z,16.82
2022-08-26T13:45:07.053Z,14.84
2022-08-26T13:54:37.695Z,15.24
2022-08-26T14:00:15.842Z,16.02
2022-08-26T14:02:43.139Z,15.63
2022-08-26T14:05:11.899Z,13.82
2022-08-26T14:10:43.733Z,15.80
2022-08-26T14:13:13.935Z,15.52
2022-08-26T14:15:42.503Z,15.24
2022-08-26T14:18:10.657Z,14.91
2022-08-26T14:20:38.601Z,15.08
2022-08-26T14:23:21.071Z,14.86
2022-08-26T14:25:50.840Z,14.51
2022-08-26T14:28:18.303Z,14.37
2022-08-26T14:30:48.252Z,14.65
2022-08-26T14:33:18.943Z,14.55
2022-08-26T14:35:49.108Z,14.94
2022-08-26T14:38:19.444Z,14.52
2022-08-26T14:40:45.956Z,13.90
2022-08-26T14:43:18.722Z,14.80
2022-08-26T14:45:45.698Z,14.65
2022-08-26T14:48:19.234Z,14.56
2022-08-26T14:50:50.803Z,14.06
2022-08-26T14:53:36.669Z,14.44
2022-08-26T14:56:04.115Z,14.36
2022-08-26T14:58:34.961Z,14.65
2022-08-26T15:01:04.555Z,14.47
2022-08-26T15:03:33.768Z,14.12
2022-08-26T15:06:03.440Z,13.91
2022-08-26T15:08:31.069Z,13.84
2022-08-26T15:11:00.432Z,14.78
2022-08-26T15:13:27.930Z,13.38
2022-08-26T15:15:57.788Z,13.89
2022-08-26T15:18:27.142Z,14.29
2022-08-26T15:20:58.824Z,14.94
2022-08-26T15:23:26.186Z,15.40
2022-08-26T15:25:56.018Z,15.36
2022-08-26T15:28:23.257Z,15.71
2022-08-26T15:30:51.126Z,15.95
2022-08-26T15:33:21.527Z,16.85
2022-08-26T15:35:50.789Z,17.31
2022-08-26T15:38:18.129Z,17.89
2022-08-26T15:40:47.692Z,17.97
2022-08-26T15:43:27.883Z,18.36
2022-08-26T15:45:57.820Z,19.25
2022-08-26T15:48:24.875Z,19.80
2022-08-26T15:50:53.545Z,19.67
2022-08-26T15:53:24.049Z,20.73
2022-08-26T15:55:58.829Z,21.10
2022-08-26T15:58:26.434Z,21.04
2022-08-26T16:00:56.698Z,21.38
2022-08-26T16:03:28.334Z,21.95
2022-08-26T16:05:55.448Z,22.49
2022-08-26T16:08:22.402Z,22.80
2022-08-26T16:10:50.885Z,22.97
2022-08-26T16:13:21.307Z,23.74
2022-08-26T16:15:48.397Z,24.07
2022-08-26T16:18:15.993Z,24.36
2022-08-26T16:21:05.021Z,25.56
2022-08-26T16:23:45.907Z,25.23
2022-08-26T16:26:15.501Z,25.97
2022-08-26T16:28:44.588Z,26.04
2022-08-26T16:31:15.042Z,26.69
2022-08-26T16:33:44.162Z,26.87
2022-08-26T16:36:17.564Z,28.20
2022-08-26T16:38:56.308Z,28.12
2022-08-26T16:41:25.130Z,27.88
2022-08-26T16:43:52.394Z,27.80
2022-08-26T16:46:23.735Z,28.44
2022-08-26T16:48:53.631Z,28.28
2022-08-26T16:51:27.182Z,28.53
2022-08-26T16:53:55.614Z,28.62
2022-08-26T16:56:33.427Z,28.86
2022-08-26T16:59:12.023Z,28.70
2022-08-26T17:01:43.427Z,29.23
2022-08-26T17:04:10.175Z,29.01
2022-08-26T17:06:37.040Z,29.18
2022-08-26T17:09:04.268Z,29.46
2022-08-26T17:11:31.034Z,29.95
2022-08-26T17:14:00.157Z,30.35
2022-08-26T17:16:27.384Z,30.55
2022-08-26T17:18:56.320Z,30.00
2022-08-26T17:21:23.333Z,30.26
2022-08-26T17:23:50.167Z,30.67
2022-08-26T17:26:19.806Z,31.03
2022-08-26T17:28:46.569Z,31.15
2022-08-26T17:31:13.612Z,31.61
2022-08-26T17:33:40.442Z,31.91
2022-08-26T17:36:08.756Z,32.30
2022-08-26T17:38:41.632Z,32.21
2022-08-26T17:41:17.120Z,32.93
2022-08-26T17:43:46.208Z,33.20
2022-08-26T17:46:13.091Z,33.15
2022-08-26T17:48:42.725Z,33.57
2022-08-26T17:51:14.638Z,34.25
2022-08-26T17:53:42.364Z,34.18
2022-08-26T17:56:12.469Z,34.24
2022-08-26T17:58:51.096Z,34.60
2022-08-26T18:01:20.603Z,34.99
2022-08-26T18:03:47.905Z,35.41
2022-08-26T18:06:16.933Z,35.55
2022-08-26T18:08:44.905Z,35.83
2022-08-26T18:11:14.389Z,35.80
2022-08-26T18:13:47.050Z,35.76
2022-08-26T18:16:20.162Z,36.47
2022-08-26T18:18:48.578Z,36.39
2022-08-26T18:21:18.142Z,36.55
2022-08-26T18:23:49.262Z,36.54
2022-08-26T18:26:22.925Z,36.75
2022-08-26T18:28:52.730Z,37.08
2022-08-26T18:31:27.765Z,37.24
2022-08-26T18:33:54.733Z,37.32
2022-08-26T18:36:30.119Z,37.29
2022-08-26T18:39:03.383Z,37.96
2022-08-26T18:41:34.728Z,37.65
2022-08-26T18:44:51.802Z,38.21
2022-08-26T18:47:30.258Z,38.27
2022-08-26T18:50:05.931Z,38.59
2022-08-26T18:52:36.696Z,38.59
2022-08-26T18:55:51.162Z,38.91
2022-08-26T18:58:20.210Z,39.35
2022-08-26T19:00:52.162Z,39.24
2022-08-26T19:03:19.722Z,39.39
2022-08-26T19:06:17.094Z,39.50
2022-08-26T19:09:39.062Z,39.79
2022-08-26T19:12:26.971Z,39.51
2022-08-26T19:14:54.489Z,39.62
2022-08-26T19:17:22.658Z,39.83
2022-08-26T19:19:49.814Z,40.10
2022-08-26T19:22:19.159Z,40.01
2022-08-26T19:25:57.060Z,40.33
2022-08-26T19:28:53.091Z,40.87
2022-08-26T19:32:10.594Z,40.36
2022-08-26T19:34:40.482Z,40.29
2022-08-26T19:37:07.865Z,40.34
2022-08-26T19:39:35.155Z,40.80
2022-08-26T19:42:08.960Z,40.68
2022-08-26T19:48:15.759Z,41.03
2022-08-26T19:50:58.795Z,40.81
2022-08-26T19:54:02.587Z,41.39
2022-08-26T19:56:29.163Z,41.80
2022-08-26T19:58:58.450Z,41.03
2022-08-26T20:05:11.578Z,41.63
2022-08-26T20:07:48.969Z,41.56
2022-08-26T20:10:17.438Z,42.01
2022-08-26T20:12:44.646Z,41.65
2022-08-26T20:15:13.231Z,42.12
2022-08-26T20:17:44.280Z,42.43
2022-08-26T20:20:33.242Z,42.63
2022-08-26T20:23:01.824Z,42.56
2022-08-26T20:25:28.684Z,42.79
2022-08-26T20:27:55.530Z,42.80
2022-08-26T20:30:22.542Z,43.00
2022-08-26T20:32:49.279Z,43.20
2022-08-26T20:35:16.121Z,43.17
2022-08-26T20:37:45.249Z,43.42
2022-08-26T20:40:15.742Z,43.31
2022-08-26T20:42:45.005Z,43.89
2022-08-26T20:45:14.613Z,44.12
2022-08-26T20:47:43.638Z,43.82
2022-08-26T20:50:13.257Z,44.01
2022-08-26T20:52:40.033Z,43.82
2022-08-26T20:55:10.538Z,43.78
2022-08-26T20:57:43.230Z,43.87
2022-08-26T21:00:12.965Z,44.21
2022-08-26T21:02:46.270Z,44.17
2022-08-26T21:05:13.706Z,44.46
2022-08-26T21:07:43.056Z,44.50
2022-08-26T21:10:14.790Z,44.77
2022-08-26T21:12:41.500Z,45.32
2022-08-26T21:15:09.022Z,45.09
2022-08-26T21:17:38.078Z,45.51
2022-08-26T21:20:05.590Z,45.45
2022-08-26T21:22:32.383Z,45.34
2022-08-26T21:24:59.674Z,45.83
2022-08-26T21:27:27.907Z,45.86
2022-08-26T21:29:54.993Z,45.99
2022-08-26T21:32:22.184Z,45.78
2022-08-26T21:34:48.889Z,45.98
2022-08-26T21:37:20.307Z,45.95
2022-08-26T21:39:55.309Z,46.36
2022-08-26T21:42:24.806Z,46.29
2022-08-26T21:44:53.346Z,46.84
2022-08-26T21:47:21.188Z,46.70
2022-08-26T21:49:51.306Z,47.24
2022-08-26T21:52:18.267Z,46.95
2022-08-26T21:54:49.593Z,47.27
2022-08-26T21:57:19.141Z,47.49
2022-08-26T21:59:51.069Z,47.60
2022-08-26T22:02:20.587Z,47.54
2022-08-26T22:04:48.942Z,47.76
2022-08-26T22:07:18.267Z,48.20
2022-08-26T22:09:45.224Z,48.08
2022-08-26T22:12:16.772Z,48.34
2022-08-26T22:14:43.719Z,48.13
2022-08-26T22:17:10.437Z,48.67
2022-08-26T22:19:43.349Z,49.48
2022-08-26T22:22:13.220Z,49.18
2022-08-26T22:24:43.254Z,49.83
2022-08-26T22:27:15.984Z,49.48
2022-08-26T22:29:42.756Z,49.82
2022-08-26T22:32:09.482Z,49.47
2022-08-26T22:34:38.510Z,49.46
2022-08-26T22:37:08.195Z,49.49
2022-08-26T22:39:38.232Z,49.42
2022-08-26T22:42:07.417Z,49.53
2022-08-26T22:44:37.235Z,50.22
2022-08-26T22:47:04.169Z,50.20
2022-08-26T22:49:31.741Z,50.32
2022-08-26T22:51:58.708Z,50.61
2022-08-26T22:54:25.465Z,50.57
2022-08-26T22:56:52.209Z,50.58
2022-08-26T22:59:19.044Z,50.78
2022-08-26T23:01:49.374Z,50.81
2022-08-26T23:04:16.200Z,50.83
2022-08-26T23:06:47.319Z,50.86
2022-08-26T23:09:17.117Z,50.93
2022-08-26T23:11:47.395Z,51.25
2022-08-26T23:14:14.585Z,51.26
2022-08-26T23:16:44.674Z,51.49
2022-08-26T23:19:15.203Z,51.63
2022-08-26T23:21:42.005Z,51.73
2022-08-26T23:24:14.981Z,51.62
2022-08-26T23:26:42.311Z,51.70
2022-08-26T23:29:10.552Z,52.09
2022-08-26T23:31:41.209Z,51.89
2022-08-26T23:34:29.353Z,52.16
2022-08-26T23:36:58.996Z,52.37
2022-08-26T23:39:29.295Z,52.55
2022-08-26T23:41:58.462Z,52.26
2022-08-26T23:44:26.541Z,52.51
2022-08-26T23:46:53.490Z,52.43
2022-08-26T23:49:20.520Z,52.57
2022-08-26T23:52:08.592Z,52.75
2022-08-26T23:54:37.963Z,53.03
2022-08-26T23:57:05.828Z,53.04
2022-08-26T23:59:37.170Z,53.28
